Time;durP1;ratioP1;P1;durP2;ratioP2;P2;SDS_P1;SDS_P2;PMS_P1;PMS_P2;Temp;Humidity;BMP_temperature;BMP_pressure;BME280_temperature;BME280_humidity;BME280_pressure;Samples;Min_cycle;Max_cycle;Signal;HPM_P1;HPM_P2
2024/03/09 00:01:55;;;;;;;0.30;0.30;;;;;;;5.02;95.93;97275.66;4986339;28;20214;-64
2024/03/09 00:04:22;;;;;;;0.30;0.30;;;;;;;5.40;97.79;97347.88;5052559;28;20058;-62
2024/03/09 00:06:49;;;;;;;0.40;0.40;;;;;;;5.57;97.24;97342.31;5052201;28;20098;-63
2024/03/09 00:09:16;;;;;;;0.30;0.30;;;;;;;5.35;97.77;97318.66;4986375;28;20103;-63
2024/03/09 00:11:43;;;;;;;0.40;0.40;;;;;;;5.77;96.81;97331.38;5052512;28;20145;-62
2024/03/09 00:14:11;;;;;;;0.30;0.30;;;;;;;5.43;97.28;97330.75;5052549;28;20078;-63
2024/03/09 00:16:38;;;;;;;0.30;0.30;;;;;;;5.59;98.11;97334.56;5052697;28;20061;-62
2024/03/09 00:19:07;;;;;;;0.30;0.30;;;;;;;4.95;99.41;97297.34;5052885;28;20056;-63
2024/03/09 00:21:35;;;;;;;0.40;0.40;;;;;;;5.64;98.76;97331.63;4986107;28;20069;-64
2024/03/09 00:24:04;;;;;;;0.30;0.30;;;;;;;5.73;97.92;97335.13;5048404;28;20065;-64
2024/03/09 00:26:30;;;;;;;0.30;0.30;;;;;;;5.81;95.65;97315.03;4983012;28;20077;-65
2024/03/09 00:28:57;;;;;;;0.30;0.30;;;;;;;5.93;95.32;97339.88;5049890;28;20440;-63
2024/03/09 00:31:24;;;;;;;0.30;0.30;;;;;;;5.26;95.32;97226.47;5046462;28;20109;-63
2024/03/09 00:33:52;;;;;;;0.30;0.30;;;;;;;5.99;95.29;97338.56;4963173;28;20181;-64
2024/03/09 00:36:23;;;;;;;0.30;0.30;;;;;;;5.91;95.49;97315.47;5045981;28;20055;-62
2024/03/09 00:38:50;;;;;;;0.30;0.30;;;;;;;5.38;94.48;97224.63;4963905;28;20055;-62
2024/03/09 00:41:18;;;;;;;0.38;0.38;;;;;;;6.01;95.49;97344.50;5029619;28;20082;-62
2024/03/09 00:43:47;;;;;;;0.38;0.38;;;;;;;6.07;95.66;97338.47;5029184;28;20055;-62
2024/03/09 00:46:14;;;;;;;0.40;0.40;;;;;;;6.05;95.18;97348.22;4963258;28;20170;-64
2024/03/09 00:48:43;;;;;;;0.30;0.30;;;;;;;5.45;95.52;97252.38;4962549;28;20531;-63
2024/03/09 00:51:11;;;;;;;0.30;0.30;;;;;;;6.08;94.78;97334.63;5045148;28;20562;-64
2024/03/09 00:53:40;;;;;;;0.35;0.35;;;;;;;6.30;93.64;97338.16;5044807;28;20062;-62
2024/03/09 00:56:08;;;;;;;0.30;0.30;;;;;;;6.31;92.48;97329.56;4963402;28;20055;-62
2024/03/09 00:58:38;;;;;;;0.30;0.30;;;;;;;6.38;91.59;97329.84;5045111;28;20055;-62
2024/03/09 01:01:05;;;;;;;0.40;0.40;;;;;;;6.06;91.44;97316.81;5045488;28;20464;-63
2024/03/09 01:03:33;;;;;;;0.40;0.40;;;;;;;5.50;91.35;97188.19;5029059;28;20499;-63
2024/03/09 01:06:00;;;;;;;0.40;0.40;;;;;;;6.31;91.60;97335.06;4963492;28;20070;-63
2024/03/09 01:08:28;;;;;;;0.30;0.30;;;;;;;6.37;92.00;97328.22;5028817;28;20063;-61
2024/03/09 01:10:55;;;;;;;0.30;0.30;;;;;;;5.59;91.31;97192.50;5045530;28;20484;-62
2024/03/09 01:13:22;;;;;;;0.40;0.40;;;;;;;6.36;92.16;97315.63;5044895;28;20055;-62
2024/03/09 01:15:52;;;;;;;0.40;0.40;;;;;;;6.41;91.69;97312.66;4962943;28;20059;-62
2024/03/09 01:18:20;;;;;;;0.32;0.32;;;;;;;6.28;91.96;97308.22;4961194;28;20479;-62
2024/03/09 01:20:47;;;;;;;0.40;0.40;;;;;;;6.39;91.85;97314.94;5044980;28;20184;-63
2024/03/09 01:23:14;;;;;;;0.30;0.30;;;;;;;6.41;91.56;97304.41;5044872;28;20199;-62
2024/03/09 01:25:42;;;;;;;0.30;0.30;;;;;;;5.55;90.15;97157.75;5028223;28;20053;-63
2024/03/09 01:28:10;;;;;;;0.32;0.32;;;;;;;5.49;90.77;97142.63;5027964;28;20583;-63
2024/03/09 01:30:39;;;;;;;0.30;0.30;;;;;;;6.19;90.34;97244.25;5030770;28;20062;-63
2024/03/09 01:33:09;;;;;;;0.30;0.30;;;;;;;6.61;90.40;97305.53;5042890;28;20104;-62
2024/03/09 01:35:35;;;;;;;0.30;0.30;;;;;;;6.24;90.56;97296.31;4963403;28;20054;-64
2024/03/09 01:38:02;;;;;;;0.30;0.30;;;;;;;6.20;90.32;97267.84;4982122;28;20057;-62
2024/03/09 01:40:29;;;;;;;0.30;0.30;;;;;;;5.61;89.32;97156.44;4978021;28;20055;-63
2024/03/09 01:42:57;;;;;;;0.40;0.40;;;;;;;5.77;90.77;97206.91;4981987;28;20512;-62
2024/03/09 01:45:24;;;;;;;0.40;0.40;;;;;;;6.25;91.70;97303.41;4981675;28;20142;-62
2024/03/09 01:47:52;;;;;;;0.30;0.30;;;;;;;6.37;90.63;97288.91;5048076;28;20062;-63
2024/03/09 01:50:21;;;;;;;0.38;0.38;;;;;;;6.14;91.23;97291.22;5047893;28;20062;-62
2024/03/09 01:52:51;;;;;;;0.38;0.38;;;;;;;6.19;91.58;97299.25;4981642;28;20050;-65
2024/03/09 01:55:20;;;;;;;0.30;0.30;;;;;;;6.22;91.34;97304.09;5047756;28;20050;-61
2024/03/09 01:57:47;;;;;;;0.30;0.30;;;;;;;6.29;90.49;97276.03;5047666;28;20050;-61
2024/03/09 02:00:17;;;;;;;0.40;0.40;;;;;;;6.04;90.69;97244.84;4981376;28;20058;-62
2024/03/09 02:02:45;;;;;;;0.40;0.40;;;;;;;6.43;90.64;97288.38;4981680;28;20905;-61
2024/03/09 02:05:13;;;;;;;0.30;0.30;;;;;;;6.46;89.72;97287.69;4981471;28;20563;-62
2024/03/09 02:07:40;;;;;;;0.38;0.38;;;;;;;6.28;90.98;97297.22;5047543;28;20090;-62
2024/03/09 02:10:11;;;;;;;0.30;0.30;;;;;;;6.26;90.87;97293.22;5047565;28;20529;-63
2024/03/09 02:12:42;;;;;;;0.40;0.40;;;;;;;6.33;91.30;97305.28;5046897;28;20066;-63
2024/03/09 02:15:16;;;;;;;0.35;0.35;;;;;;;6.28;90.94;97274.41;4980972;28;20068;-62
2024/03/09 02:17:47;;;;;;;0.35;0.35;;;;;;;6.54;90.64;97294.25;5047202;28;20066;-63
2024/03/09 02:20:16;;;;;;;0.35;0.35;;;;;;;6.64;89.65;97291.88;4981614;28;20285;-62
2024/03/09 02:22:46;;;;;;;0.40;0.40;;;;;;;6.52;91.00;97302.84;4981612;28;20127;-62
2024/03/09 02:25:15;;;;;;;0.40;0.40;;;;;;;6.28;90.82;97269.72;4980814;28;20665;-62
2024/03/09 02:27:42;;;;;;;0.40;0.40;;;;;;;6.41;90.02;97289.84;4980795;28;20099;-62
2024/03/09 02:30:11;;;;;;;0.40;0.40;;;;;;;6.54;89.58;97306.09;5046873;28;20135;-62
2024/03/09 02:32:39;;;;;;;0.40;0.40;;;;;;;6.57;90.49;97305.41;5042797;28;20070;-62
2024/03/09 02:35:08;;;;;;;0.40;0.40;;;;;;;6.56;91.89;97291.97;4961182;28;20116;-65
2024/03/09 02:37:35;;;;;;;0.30;0.30;;;;;;;6.57;91.66;97299.91;4961234;28;20070;-62
2024/03/09 02:40:03;;;;;;;0.40;0.40;;;;;;;6.27;90.81;97229.63;4961157;28;20547;-62
2024/03/09 02:42:32;;;;;;;0.40;0.40;;;;;;;6.62;91.21;97305.19;4961390;28;20050;-62
2024/03/09 02:44:59;;;;;;;0.40;0.40;;;;;;;6.73;91.89;97303.63;4961038;28;20112;-63
2024/03/09 02:47:26;;;;;;;0.40;0.40;;;;;;;6.67;91.53;97299.47;5026881;28;20061;-63
2024/03/09 02:49:54;;;;;;;0.40;0.40;;;;;;;6.51;92.36;97295.75;4961440;28;20062;-63
2024/03/09 02:52:23;;;;;;;0.40;0.40;;;;;;;6.59;93.03;97292.09;5027190;28;20050;-62
2024/03/09 02:54:50;;;;;;;0.30;0.30;;;;;;;6.67;92.45;97285.69;5027011;28;20180;-64
2024/03/09 02:57:17;;;;;;;0.40;0.40;;;;;;;6.72;91.50;97292.97;4961475;28;20058;-62
2024/03/09 02:59:47;;;;;;;0.30;0.30;;;;;;;5.90;92.08;97236.06;4961079;28;20061;-62
2024/03/09 03:04:58;;;;;;;0.32;0.32;;;;;;;6.04;93.53;97294.34;4998878;28;20062;-63
2024/03/09 03:07:25;;;;;;;0.30;0.30;;;;;;;5.20;93.21;97117.97;4980182;28;20061;-64
2024/03/09 03:09:57;;;;;;;0.30;0.30;;;;;;;6.21;92.47;97261.22;4980573;28;20065;-62
2024/03/09 03:12:23;;;;;;;0.40;0.40;;;;;;;6.18;91.61;97259.94;5047277;28;20054;-62
2024/03/09 03:14:50;;;;;;;0.40;0.40;;;;;;;5.71;91.95;97173.31;4980256;28;20501;-62
2024/03/09 03:17:17;;;;;;;0.30;0.30;;;;;;;6.43;92.09;97299.38;4980027;28;20061;-63
2024/03/09 03:19:44;;;;;;;0.40;0.40;;;;;;;6.40;91.84;97289.06;4980556;28;20065;-64
2024/03/09 03:22:10;;;;;;;0.40;0.40;;;;;;;6.00;91.92;97235.69;4980686;28;20069;-62
2024/03/09 03:24:38;;;;;;;0.30;0.30;;;;;;;6.46;91.06;97293.22;5063194;28;20152;-63
2024/03/09 03:27:05;;;;;;;0.40;0.40;;;;;;;5.87;91.31;97188.09;4979877;28;20469;-63
2024/03/09 03:29:32;;;;;;;0.30;0.30;;;;;;;6.19;92.97;97293.75;4979961;28;20500;-63
2024/03/09 03:32:01;;;;;;;0.30;0.30;;;;;;;5.65;95.32;97240.59;4979296;28;20536;-62
2024/03/09 03:34:31;;;;;;;0.40;0.40;;;;;;;5.47;95.18;97210.84;5046511;28;20046;-61
2024/03/09 03:36:58;;;;;;;0.30;0.30;;;;;;;5.96;96.45;97306.22;4979879;28;20132;-62
2024/03/09 03:39:27;;;;;;;0.30;0.30;;;;;;;5.54;95.45;97222.09;4980867;28;20541;-62
2024/03/09 03:41:55;;;;;;;0.40;0.40;;;;;;;3.05;95.27;96815.25;4980581;28;20050;-63
2024/03/09 03:44:21;;;;;;;0.30;0.30;;;;;;;5.86;95.86;97397.34;4979980;28;20054;-62
2024/03/09 03:46:48;;;;;;;0.30;0.30;;;;;;;5.86;96.76;97290.91;5046189;28;20042;-62
2024/03/09 03:49:15;;;;;;;0.30;0.30;;;;;;;4.99;95.90;97181.09;5046112;28;20893;-63
2024/03/09 03:51:43;;;;;;;0.32;0.32;;;;;;;5.32;99.18;97288.31;4980066;28;20076;-62
2024/03/09 03:54:10;;;;;;;0.30;0.30;;;;;;;4.79;100.00;97205.72;5045788;28;20058;-63
2024/03/09 03:56:37;;;;;;;0.30;0.30;;;;;;;5.23;100.00;97265.59;4979915;28;20107;-64
2024/03/09 03:59:09;;;;;;;0.30;0.30;;;;;;;5.66;100.00;97285.34;4982056;28;20433;-62
2024/03/09 04:01:36;;;;;;;0.30;0.30;;;;;;;5.90;98.99;97285.56;4983197;28;20058;-62
2024/03/09 04:04:03;;;;;;;0.30;0.30;;;;;;;5.56;99.04;97220.63;4982471;28;20560;-62
2024/03/09 04:06:30;;;;;;;0.30;0.30;;;;;;;6.11;98.86;97283.63;5049354;28;20456;-63
2024/03/09 04:08:57;;;;;;;0.30;0.30;;;;;;;6.19;98.08;97288.25;5049573;28;20082;-63
2024/03/09 04:11:32;;;;;;;0.35;0.35;;;;;;;6.33;96.92;97283.28;5049525;28;20050;-63
2024/03/09 04:13:59;;;;;;;0.40;0.40;;;;;;;6.01;97.02;97238.09;5048690;28;20062;-62
2024/03/09 04:16:30;;;;;;;0.38;0.38;;;;;;;6.42;95.66;97286.75;5043785;28;20070;-63
2024/03/09 04:18:58;;;;;;;0.30;0.30;;;;;;;5.90;95.65;97214.09;4963149;28;20050;-62
2024/03/09 04:21:24;;;;;;;0.40;0.40;;;;;;;6.43;95.20;97282.06;4963148;28;20542;-63
2024/03/09 04:23:51;;;;;;;0.40;0.40;;;;;;;6.37;94.16;97284.19;4963373;28;20421;-63
2024/03/09 04:26:18;;;;;;;0.30;0.30;;;;;;;6.11;94.84;97239.63;4963498;28;20062;-62
2024/03/09 04:28:45;;;;;;;0.40;0.40;;;;;;;6.16;94.43;97251.22;4963718;28;20439;-63
2024/03/09 04:31:13;;;;;;;0.40;0.40;;;;;;;6.47;94.94;97283.78;5031660;28;20154;-62
2024/03/09 04:33:40;;;;;;;0.40;0.40;;;;;;;6.47;94.83;97283.78;4983064;28;20653;-62
2024/03/09 04:36:08;;;;;;;0.40;0.40;;;;;;;6.53;95.30;97287.94;4982773;28;20054;-62
2024/03/09 04:38:35;;;;;;;0.30;0.30;;;;;;;6.02;95.74;97219.66;4982726;28;20233;-62
2024/03/09 04:41:02;;;;;;;0.30;0.30;;;;;;;6.50;95.03;97293.31;5048819;28;20712;-62
2024/03/09 04:43:32;;;;;;;0.30;0.30;;;;;;;6.04;94.85;97204.41;5048658;28;20146;-62
2024/03/09 04:46:00;;;;;;;0.30;0.30;;;;;;;6.58;94.13;97290.50;4982269;28;20892;-62
2024/03/09 04:48:26;;;;;;;0.30;0.30;;;;;;;6.53;95.03;97296.19;4981749;28;20138;-64
2024/03/09 04:50:55;;;;;;;0.32;0.32;;;;;;;6.50;94.77;97298.81;4982410;28;20062;-62
2024/03/09 04:53:21;;;;;;;0.40;0.40;;;;;;;6.56;94.70;97295.50;5048904;28;21040;-62
2024/03/09 04:55:51;;;;;;;0.40;0.40;;;;;;;6.24;93.77;97273.50;4981809;28;20086;-63
2024/03/09 04:58:19;;;;;;;0.40;0.40;;;;;;;6.59;93.87;97303.09;4982566;28;20060;-64
2024/03/09 05:00:46;;;;;;;0.30;0.30;;;;;;;6.64;92.57;97311.16;4982664;28;20057;-63
2024/03/09 05:03:13;;;;;;;0.40;0.40;;;;;;;6.35;92.78;97263.69;5048858;28;20054;-65
2024/03/09 05:05:41;;;;;;;0.40;0.40;;;;;;;6.22;92.26;97238.06;4981870;28;20054;-63
2024/03/09 05:08:08;;;;;;;0.40;0.40;;;;;;;6.72;91.73;97318.53;4982610;28;20066;-63
2024/03/09 05:10:36;;;;;;;0.40;0.40;;;;;;;6.76;92.20;97318.66;4981899;28;20054;-64
2024/03/09 05:13:06;;;;;;;0.40;0.40;;;;;;;6.31;92.02;97247.03;4981808;28;20520;-63
2024/03/09 05:15:33;;;;;;;0.40;0.40;;;;;;;6.82;91.86;97318.09;4982036;28;20050;-64
2024/03/09 05:18:02;;;;;;;0.30;0.30;;;;;;;6.85;90.28;97311.91;4981940;28;20072;-63
2024/03/09 05:20:30;;;;;;;0.30;0.30;;;;;;;6.89;89.47;97318.34;4981973;28;20468;-63
2024/03/09 05:22:58;;;;;;;0.40;0.40;;;;;;;6.55;89.04;97284.84;4982246;28;20057;-62
2024/03/09 05:25:26;;;;;;;0.40;0.40;;;;;;;6.83;90.22;97336.22;4981871;28;20055;-62
2024/03/09 05:27:54;;;;;;;0.30;0.30;;;;;;;6.78;90.39;97328.16;4982106;28;20062;-65
2024/03/09 05:30:27;;;;;;;0.40;0.40;;;;;;;6.72;90.26;97328.75;4981267;28;20628;-62
2024/03/09 05:32:57;;;;;;;0.30;0.30;;;;;;;6.32;91.34;97267.94;4981481;28;20531;-64
2024/03/09 05:35:28;;;;;;;0.38;0.38;;;;;;;6.83;91.10;97336.22;4981522;28;20532;-64
2024/03/09 05:37:56;;;;;;;0.30;0.30;;;;;;;6.86;89.60;97337.50;5048597;28;20442;-62
2024/03/09 05:40:31;;;;;;;0.30;0.30;;;;;;;6.63;89.72;97304.03;5048731;28;20042;-65
2024/03/09 05:43:01;;;;;;;0.32;0.32;;;;;;;6.71;89.31;97344.44;4981745;28;20086;-63
2024/03/09 05:45:28;;;;;;;0.40;0.40;;;;;;;6.19;89.44;97244.25;4981492;28;20455;-63
2024/03/09 05:47:57;;;;;;;0.40;0.40;;;;;;;6.82;88.48;97351.16;5047801;28;20491;-63
2024/03/09 05:50:29;;;;;;;0.40;0.40;;;;;;;6.76;88.67;97347.00;5043924;28;20051;-62
2024/03/09 05:53:00;;;;;;;0.30;0.30;;;;;;;6.52;88.31;97296.53;4962053;28;20051;-64
2024/03/09 05:55:28;;;;;;;0.40;0.40;;;;;;;6.79;88.64;97353.75;4962170;28;20062;-64
2024/03/09 05:57:56;;;;;;;0.30;0.30;;;;;;;6.71;88.87;97349.94;4961792;28;20518;-64
2024/03/09 06:00:27;;;;;;;0.40;0.40;;;;;;;4.53;87.86;96983.66;4960905;28;20680;-62
2024/03/09 06:02:56;;;;;;;0.40;0.40;;;;;;;6.82;88.22;97353.09;4960673;28;20055;-62
2024/03/09 06:05:28;;;;;;;0.40;0.40;;;;;;;6.72;88.90;97346.03;4960615;28;20051;-64
2024/03/09 06:07:57;;;;;;;0.40;0.40;;;;;;;6.61;90.44;97355.84;5025801;28;20421;-62
2024/03/09 06:10:24;;;;;;;0.40;0.40;;;;;;;6.00;93.68;97345.66;4960544;28;20193;-63
2024/03/09 06:12:52;;;;;;;0.35;0.35;;;;;;;5.78;94.37;97282.72;4961244;28;20054;-62
2024/03/09 06:15:22;;;;;;;0.40;0.40;;;;;;;6.06;95.64;97360.81;4960936;28;20050;-63
2024/03/09 06:17:53;;;;;;;0.40;0.40;;;;;;;6.09;94.88;97316.16;4961626;28;20059;-63
2024/03/09 06:20:21;;;;;;;0.40;0.40;;;;;;;6.61;93.97;97349.56;5026431;28;20101;-63
2024/03/09 06:22:48;;;;;;;0.30;0.30;;;;;;;6.68;92.55;97349.81;4961257;28;20054;-63
2024/03/09 06:25:24;;;;;;;0.40;0.40;;;;;;;6.57;91.70;97316.41;4961227;28;20093;-64
2024/03/09 06:27:53;;;;;;;0.40;0.40;;;;;;;5.98;95.73;97348.75;5027366;28;20106;-62
2024/03/09 06:30:22;;;;;;;0.30;0.30;;;;;;;5.77;97.15;97309.38;4961092;28;20082;-62
2024/03/09 06:32:57;;;;;;;0.40;0.40;;;;;;;6.45;95.00;97356.81;4973707;28;20511;-62
2024/03/09 06:35:25;;;;;;;0.40;0.40;;;;;;;6.53;93.19;97342.97;4980748;28;20054;-62
2024/03/09 06:38:00;;;;;;;0.40;0.40;;;;;;;6.83;91.57;97357.47;4980621;28;20054;-62
2024/03/09 06:40:30;;;;;;;0.38;0.38;;;;;;;6.63;90.65;97361.84;4980473;28;20055;-62
2024/03/09 06:42:59;;;;;;;0.40;0.40;;;;;;;6.82;89.74;97362.16;4981043;28;20143;-62
2024/03/09 06:45:27;;;;;;;0.40;0.40;;;;;;;6.26;88.97;97261.00;4980640;28;20096;-63
2024/03/09 06:47:57;;;;;;;0.40;0.40;;;;;;;7.06;87.41;97362.25;5046928;28;20058;-64
2024/03/09 06:50:31;;;;;;;0.40;0.40;;;;;;;6.81;86.50;97288.94;4980901;28;20054;-63
2024/03/09 06:52:58;;;;;;;0.40;0.40;;;;;;;7.40;87.03;97355.53;4981332;28;20069;-63
2024/03/09 06:55:26;;;;;;;0.40;0.40;;;;;;;6.90;86.02;97259.41;4980950;28;20054;-64
2024/03/09 06:57:54;;;;;;;0.40;0.40;;;;;;;7.55;85.33;97363.16;5046525;28;20051;-64
2024/03/09 07:00:25;;;;;;;0.40;0.40;;;;;;;7.41;84.30;97346.91;4980391;28;20064;-64
2024/03/09 07:02:52;;;;;;;0.40;0.40;;;;;;;7.76;84.27;97418.19;4980663;28;20062;-64
2024/03/09 07:05:20;;;;;;;0.40;0.40;;;;;;;7.53;84.29;97338.69;4980328;28;20081;-63
2024/03/09 07:07:48;;;;;;;0.40;0.40;;;;;;;7.03;82.89;97255.53;4980626;28;20050;-64
2024/03/09 07:10:15;;;;;;;0.40;0.40;;;;;;;7.62;83.09;97372.44;4973695;28;20054;-63
2024/03/09 07:12:42;;;;;;;0.40;0.40;;;;;;;7.72;81.98;97380.28;5037789;28;20112;-64
2024/03/09 07:15:22;;;;;;;0.40;0.40;;;;;;;7.82;82.65;97389.25;4976174;28;20080;-65
2024/03/09 07:17:50;;;;;;;0.40;0.40;;;;;;;7.83;81.21;97374.28;4973273;28;20058;-64
2024/03/09 07:20:18;;;;;;;0.40;0.40;;;;;;;7.85;81.69;97372.00;4972627;28;20074;-70
2024/03/09 07:22:49;;;;;;;0.40;0.40;;;;;;;6.86;82.15;97274.97;4960750;28;20318;-64
2024/03/09 07:25:24;;;;;;;0.40;0.40;;;;;;;7.62;82.64;97368.88;4964100;28;20520;-66
2024/03/09 07:27:57;;;;;;;0.40;0.40;;;;;;;7.04;83.36;97279.16;4989752;28;20090;-65
2024/03/09 07:30:25;;;;;;;0.40;0.40;;;;;;;7.28;81.44;97347.25;4979501;28;20120;-66
2024/03/09 07:32:53;;;;;;;0.40;0.40;;;;;;;5.76;84.75;97208.03;4965290;28;20051;-65
2024/03/09 07:35:25;;;;;;;0.40;0.40;;;;;;;6.95;85.80;97344.53;4985498;28;20130;-69
2024/03/09 07:37:53;;;;;;;0.40;0.40;;;;;;;6.33;84.70;97266.78;4971006;28;20491;-65
2024/03/09 07:40:23;;;;;;;0.40;0.40;;;;;;;7.63;84.89;97374.03;4980978;28;20055;-63
2024/03/09 07:42:53;;;;;;;0.40;0.40;;;;;;;7.83;83.46;97335.69;5047788;28;20069;-67
2024/03/09 07:45:22;;;;;;;0.40;0.40;;;;;;;8.54;81.99;97372.63;4971038;28;20062;-63
2024/03/09 07:47:50;;;;;;;0.40;0.40;;;;;;;8.39;79.73;97340.25;5029708;28;20051;-66
2024/03/09 07:50:22;;;;;;;0.40;0.40;;;;;;;6.48;78.77;97010.25;4963406;28;20549;-65
2024/03/09 07:52:54;;;;;;;0.40;0.40;;;;;;;7.58;81.41;97385.31;4970358;28;20100;-63
2024/03/09 07:55:26;;;;;;;0.40;0.40;;;;;;;7.73;82.72;97467.34;5045839;28;20055;-67
2024/03/09 07:57:54;;;;;;;0.35;0.35;;;;;;;8.15;80.31;97376.13;4987543;28;20062;-62
2024/03/09 08:00:39;;;;;;;0.40;0.40;;;;;;;8.48;79.79;97385.06;4966528;28;20050;-71
2024/03/09 08:03:06;;;;;;;0.40;0.40;;;;;;;8.57;78.56;97380.22;4970352;28;20128;-62
2024/03/09 08:05:33;;;;;;;0.40;0.40;;;;;;;8.66;78.53;97375.38;5049258;28;20058;-62
2024/03/09 08:08:02;;;;;;;0.40;0.40;;;;;;;8.54;77.49;97362.41;4972908;28;20094;-68
2024/03/09 08:10:31;;;;;;;0.40;0.40;;;;;;;8.92;77.22;97381.25;4963525;28;20537;-65
2024/03/09 08:12:59;;;;;;;0.45;0.45;;;;;;;8.79;75.48;97335.50;4964862;28;20433;-65
2024/03/09 08:15:32;;;;;;;0.40;0.40;;;;;;;8.68;75.35;97262.59;5049195;28;20539;-66
2024/03/09 08:17:59;;;;;;;;;;;;;;;9.36;73.86;97366.31;4970177;28;20050;-67
2024/03/09 08:20:26;;;;;;;0.40;0.40;;;;;;;8.65;73.71;97341.44;4976047;28;19948;-70
2024/03/09 08:22:54;;;;;;;0.40;0.40;;;;;;;7.96;78.56;97378.66;5031688;28;20075;-63
2024/03/09 08:25:25;;;;;;;0.40;0.40;;;;;;;8.25;78.99;97359.94;4986305;28;20054;-72
2024/03/09 08:27:52;;;;;;;0.40;0.40;;;;;;;7.76;79.32;97285.84;4982388;28;20483;-65
2024/03/09 08:30:19;;;;;;;0.40;0.40;;;;;;;8.63;77.52;97376.09;4981904;28;20133;-69
2024/03/09 08:32:48;;;;;;;0.40;0.40;;;;;;;8.27;79.79;97370.63;4982622;28;20450;-68
2024/03/09 08:35:16;;;;;;;0.40;0.40;;;;;;;8.79;78.69;97376.94;4981792;28;20050;-64
2024/03/09 08:37:44;;;;;;;0.40;0.40;;;;;;;7.07;76.89;97126.97;4982099;28;21189;-65
2024/03/09 08:40:17;;;;;;;0.40;0.40;;;;;;;8.43;75.26;97283.19;4982197;28;20141;-65
2024/03/09 08:42:48;;;;;;;0.50;0.50;;;;;;;9.18;75.13;97371.34;4982317;28;20122;-65
2024/03/09 08:45:15;;;;;;;0.40;0.40;;;;;;;8.37;74.80;97243.19;4981066;28;20057;-65
2024/03/09 08:47:42;;;;;;;0.50;0.50;;;;;;;9.23;75.28;97325.28;4981889;28;20152;-67
2024/03/09 08:50:12;;;;;;;0.40;0.40;;;;;;;9.77;73.28;97376.09;5048961;28;20054;-66
2024/03/09 08:52:42;;;;;;;0.50;0.50;;;;;;;9.34;70.94;97335.47;4982189;28;20139;-67
2024/03/09 08:55:09;;;;;;;0.40;0.40;;;;;;;9.49;71.90;97339.38;4981641;28;20145;-67
2024/03/09 08:57:38;;;;;;;0.50;0.50;;;;;;;9.76;72.66;97378.03;4981763;28;20057;-65
2024/03/09 09:00:06;;;;;;;0.50;0.50;;;;;;;9.89;71.10;97445.97;4981704;28;20054;-69
2024/03/09 09:02:33;;;;;;;0.50;0.50;;;;;;;9.48;69.80;97288.00;5048961;28;20055;-70
2024/03/09 09:05:00;;;;;;;0.40;0.40;;;;;;;10.16;68.92;97375.88;5048204;28;20058;-70
2024/03/09 09:07:27;;;;;;;0.50;0.50;;;;;;;10.14;67.71;97333.94;4981871;28;20046;-66
2024/03/09 09:09:54;;;;;;;0.50;0.50;;;;;;;10.57;66.71;97378.03;4981791;28;20135;-68
2024/03/09 09:12:21;;;;;;;0.45;0.45;;;;;;;10.10;65.51;97305.34;5048648;28;20074;-68
2024/03/09 09:14:48;;;;;;;0.40;0.40;;;;;;;10.00;65.62;97250.56;4981523;28;20069;-68
2024/03/09 09:17:15;;;;;;;0.50;0.50;;;;;;;10.49;65.67;97381.81;5048189;28;20050;-67
2024/03/09 09:19:41;;;;;;;0.50;0.50;;;;;;;9.15;70.42;97294.69;5048623;28;20158;-70
2024/03/09 09:22:10;;;;;;;0.50;0.50;;;;;;;9.33;68.71;97347.66;4981844;28;20042;-70
2024/03/09 09:24:37;;;;;;;0.40;0.40;;;;;;;8.30;69.58;97212.66;5048369;28;20125;-77
2024/03/09 09:27:04;;;;;;;0.40;0.40;;;;;;;9.23;71.23;97370.31;4981805;28;20145;-70
2024/03/09 09:29:31;;;;;;;0.50;0.50;;;;;;;9.16;69.68;97262.31;4981997;28;20050;-70
2024/03/09 09:32:03;;;;;;;0.50;0.50;;;;;;;10.34;66.43;97379.06;4981306;28;20593;-67
2024/03/09 09:34:33;;;;;;;0.50;0.50;;;;;;;10.13;67.25;97324.00;4973220;28;20054;-65
2024/03/09 09:37:00;;;;;;;0.50;0.50;;;;;;;10.66;65.84;97370.31;5047874;28;20054;-73
2024/03/09 09:39:32;;;;;;;0.50;0.50;;;;;;;10.37;66.92;97318.22;4981217;28;20054;-63
2024/03/09 09:42:00;;;;;;;0.50;0.50;;;;;;;10.63;65.27;97376.59;4981238;28;20059;-72
2024/03/09 09:44:28;;;;;;;0.50;0.50;;;;;;;10.10;62.91;97290.72;4981461;28;20134;-70
2024/03/09 09:46:56;;;;;;;0.50;0.50;;;;;;;10.49;62.91;97376.28;4980910;28;20076;-70
2024/03/09 09:49:24;;;;;;;0.50;0.50;;;;;;;10.06;62.42;97329.38;4980312;28;20137;-71
2024/03/09 09:51:53;;;;;;;0.40;0.40;;;;;;;9.98;63.66;97337.84;4981148;28;20516;-66
2024/03/09 09:54:26;;;;;;;0.50;0.50;;;;;;;9.47;65.31;97333.44;4980967;28;20577;-68
2024/03/09 09:59:54;;;;;;;0.50;0.50;;;;;;;9.39;66.00;97326.88;5114646;27;20776;-68
2024/03/09 10:02:24;;;;;;;0.40;0.40;;;;;;;9.73;65.33;97370.44;5091887;28;20061;-67
2024/03/09 10:04:51;;;;;;;0.50;0.50;;;;;;;9.38;64.71;97286.59;5045857;28;20045;-67
2024/03/09 10:07:19;;;;;;;0.45;0.45;;;;;;;9.18;65.09;97246.19;5038295;28;20049;-70
2024/03/09 10:09:49;;;;;;;0.50;0.50;;;;;;;9.59;65.40;97342.44;5038012;28;20052;-69
2024/03/09 10:12:23;;;;;;;0.40;0.40;;;;;;;10.14;64.39;97314.56;5039867;28;20053;-68
2024/03/09 10:14:51;;;;;;;0.40;0.40;;;;;;;10.46;60.96;97288.34;5037201;28;20057;-65
2024/03/09 10:17:22;;;;;;;0.50;0.50;;;;;;;10.35;62.26;97261.63;5039239;28;20053;-65
2024/03/09 10:19:49;;;;;;;0.50;0.50;;;;;;;11.00;62.47;97290.25;5038614;28;20146;-69
2024/03/09 10:22:17;;;;;;;0.50;0.50;;;;;;;10.36;60.55;97233.56;5052401;28;20118;-68
2024/03/09 10:24:56;;;;;;;0.50;0.50;;;;;;;10.84;59.68;97287.56;5057746;28;20056;-70
2024/03/09 10:27:26;;;;;;;0.45;0.45;;;;;;;11.04;59.86;97364.00;5058714;28;20056;-70
2024/03/09 10:30:23;;;;;;;0.50;0.50;;;;;;;10.85;62.21;97368.72;5058545;28;20602;-64
2024/03/09 10:32:52;;;;;;;0.50;0.50;;;;;;;10.25;62.20;97296.22;5056790;28;20045;-64
2024/03/09 10:35:19;;;;;;;0.40;0.40;;;;;;;9.50;65.74;97294.00;5051383;28;20049;-69
2024/03/09 10:37:50;;;;;;;0.40;0.40;;;;;;;8.88;67.05;97339.72;5057234;28;20055;-68
2024/03/09 10:40:20;;;;;;;0.40;0.40;;;;;;;9.44;66.53;97329.38;5046152;28;20079;-65
2024/03/09 10:42:49;;;;;;;0.40;0.40;;;;;;;9.83;64.44;97325.63;5055658;28;20053;-65
2024/03/09 10:45:18;;;;;;;0.45;0.45;;;;;;;9.71;64.76;97251.06;5056476;28;20125;-69
2024/03/09 10:48:04;;;;;;;0.40;0.40;;;;;;;10.40;65.37;97278.75;5056867;28;20617;-64
2024/03/09 10:50:46;;;;;;;0.50;0.50;;;;;;;10.81;61.63;97356.78;5052152;28;20131;-69
2024/03/09 10:53:28;;;;;;;0.50;0.50;;;;;;;10.90;61.89;97365.66;5055270;28;20102;-66
2024/03/09 10:56:04;;;;;;;0.50;0.50;;;;;;;10.42;59.76;97236.84;5055516;28;20567;-66
2024/03/09 10:58:33;;;;;;;0.50;0.50;;;;;;;11.62;59.12;97367.47;5055431;28;20061;-64
2024/03/09 11:01:00;;;;;;;0.50;0.50;;;;;;;11.78;59.19;97334.88;5058526;28;20151;-65
2024/03/09 11:03:32;;;;;;;0.60;0.60;;;;;;;12.01;58.60;97339.22;5056772;28;20083;-65
2024/03/09 11:05:59;;;;;;;0.50;0.50;;;;;;;12.67;57.55;97351.72;5056693;28;20859;-64
2024/03/09 11:08:26;;;;;;;0.57;0.57;;;;;;;12.96;57.42;97348.94;5058020;28;20387;-65
2024/03/09 11:10:53;;;;;;;0.50;0.50;;;;;;;12.19;55.59;97215.34;5045474;28;20083;-65
2024/03/09 11:13:21;;;;;;;0.60;0.60;;;;;;;13.13;55.11;97347.59;5044770;28;20053;-66
2024/03/09 11:15:55;;;;;;;0.57;0.57;;;;;;;12.96;54.84;97345.38;5044807;28;20103;-66
2024/03/09 11:18:22;;;;;;;0.60;0.60;;;;;;;12.87;55.02;97340.09;5044594;28;20053;-66
2024/03/09 11:21:01;;;;;;;0.60;0.60;;;;;;;13.08;53.94;97345.97;5044222;28;20111;-65
2024/03/09 11:23:35;;;;;;;0.60;0.60;;;;;;;13.03;55.08;97337.94;5042568;28;20543;-65
2024/03/09 11:26:03;;;;;;;0.52;0.52;;;;;;;12.89;54.03;97337.75;5044368;28;20435;-65
2024/03/09 11:28:43;;;;;;;0.60;0.60;;;;;;;12.79;54.29;97332.84;5043425;28;20053;-65
2024/03/09 11:31:16;;;;;;;0.60;0.60;;;;;;;12.69;55.87;97327.97;5045148;28;20563;-67
2024/03/09 11:33:45;;;;;;;0.52;0.52;;;;;;;11.37;56.21;97238.63;5045377;28;20115;-65
2024/03/09 11:36:37;;;;;;;0.60;0.60;;;;;;;12.35;57.20;97326.28;5043817;28;20102;-67
2024/03/09 11:39:05;;;;;;;0.60;0.60;;;;;;;12.84;55.07;97315.81;5063806;28;20443;-65
2024/03/09 11:41:35;;;;;;;0.60;0.60;;;;;;;12.75;54.82;97292.28;5064234;28;20044;-65
2024/03/09 11:44:05;;;;;;;0.70;0.70;;;;;;;13.03;54.32;97321.25;5064302;28;20052;-64
2024/03/09 11:46:36;;;;;;;0.50;0.50;;;;;;;13.09;55.80;97311.38;5064273;28;20074;-64
2024/03/09 11:49:03;;;;;;;0.60;0.60;;;;;;;13.17;55.76;97315.84;5064251;28;20393;-64
2024/03/09 11:51:34;;;;;;;0.50;0.50;;;;;;;13.22;54.94;97309.97;5062864;28;20641;-64
2024/03/09 11:54:08;;;;;;;0.50;0.50;;;;;;;13.08;54.44;97290.34;5063917;28;20048;-65
2024/03/09 11:56:36;;;;;;;0.50;0.50;;;;;;;12.88;54.71;97319.44;5062901;28;20134;-64